createdAt,value
2023-04-11T00:03:42.973Z,14.10
2023-04-11T00:08:48.922Z,9.60
2023-04-11T00:13:51.854Z,11.20
2023-04-11T00:18:57.324Z,9.80
2023-04-11T00:24:00.418Z,14.60
2023-04-11T00:29:03.193Z,15.30
2023-04-11T00:34:05.908Z,19.00
2023-04-11T00:39:11.577Z,16.70
2023-04-11T00:44:14.839Z,13.80
2023-04-11T00:49:17.662Z,11.40
2023-04-11T00:54:20.477Z,19.60
2023-04-11T00:59:23.521Z,21.00
2023-04-11T01:04:26.383Z,18.40
2023-04-11T01:09:30.072Z,14.90
2023-04-11T01:14:33.035Z,12.50
2023-04-11T01:19:35.820Z,11.20
2023-04-11T01:24:38.625Z,12.90
2023-04-11T01:29:41.426Z,10.70
2023-04-11T01:34:47.713Z,9.30
2023-04-11T01:39:50.615Z,10.30
2023-04-11T01:44:54.446Z,10.40
2023-04-11T01:49:57.233Z,9.80
2023-04-11T01:54:59.913Z,9.80
2023-04-11T02:00:03.903Z,9.70
2023-04-11T02:05:07.069Z,10.10
2023-04-11T02:10:09.944Z,8.50
2023-04-11T02:15:12.603Z,8.90
2023-04-11T02:20:15.586Z,8.50
2023-04-11T02:25:18.385Z,9.50
2023-04-11T02:30:21.120Z,9.80
2023-04-11T02:35:23.998Z,10.90
2023-04-11T02:40:26.734Z,13.40
2023-04-11T02:45:29.596Z,14.10
2023-04-11T02:50:32.621Z,10.30
2023-04-11T02:55:35.500Z,8.40
2023-04-11T03:00:38.248Z,8.50
2023-04-11T03:05:40.970Z,9.60
2023-04-11T03:10:43.703Z,12.00
2023-04-11T03:15:46.544Z,8.90
2023-04-11T03:20:50.864Z,10.60
2023-04-11T03:25:54.274Z,10.30
2023-04-11T03:30:57.303Z,8.60
2023-04-11T03:36:00.928Z,9.60
2023-04-11T03:41:04.042Z,9.10
2023-04-11T03:46:06.940Z,8.90
2023-04-11T03:51:09.824Z,8.80
2023-04-11T03:56:12.801Z,9.00
2023-04-11T04:01:16.536Z,10.70
2023-04-11T04:06:19.262Z,10.70
2023-04-11T04:11:22.158Z,11.10
2023-04-11T04:16:24.895Z,9.50
2023-04-11T04:21:33.049Z,9.90
2023-04-11T04:26:38.149Z,7.80
2023-04-11T04:31:41.950Z,9.60
2023-04-11T04:36:48.040Z,8.90
2023-04-11T04:42:01.793Z,8.00
2023-04-11T04:47:04.502Z,5.30
2023-04-11T04:52:07.255Z,6.00
2023-04-11T04:57:10.094Z,5.30
2023-04-11T05:02:12.961Z,6.20
2023-04-11T05:07:16.194Z,6.60
2023-04-11T05:12:20.439Z,5.60
2023-04-11T05:17:25.368Z,6.00
2023-04-11T05:22:28.491Z,6.80
2023-04-11T05:27:31.206Z,6.10
2023-04-11T05:32:34.254Z,5.10
2023-04-11T05:37:37.353Z,6.10
2023-04-11T05:42:40.366Z,6.60
2023-04-11T05:47:43.212Z,5.90
2023-04-11T05:52:46.101Z,10.10
2023-04-11T05:57:48.834Z,7.30
2023-04-11T06:02:52.990Z,9.20
2023-04-11T06:07:57.102Z,6.60
2023-04-11T06:12:59.896Z,9.90
2023-04-11T06:18:02.657Z,11.00
2023-04-11T06:23:05.725Z,12.90
2023-04-11T06:28:08.504Z,8.80
2023-04-11T06:33:11.615Z,6.10
2023-04-11T06:38:14.826Z,5.00
2023-04-11T06:43:17.695Z,5.10
2023-04-11T06:48:21.289Z,4.80
2023-04-11T06:53:24.298Z,4.50
2023-04-11T06:58:27.058Z,4.80
2023-04-11T07:03:31.127Z,4.20
2023-04-11T07:08:34.056Z,4.90
2023-04-11T07:13:36.907Z,4.00
2023-04-11T07:18:39.701Z,4.70
2023-04-11T07:23:43.209Z,4.40
2023-04-11T07:28:47.569Z,4.50
2023-04-11T07:33:51.313Z,5.30
2023-04-11T07:38:54.215Z,4.20
2023-04-11T07:43:57.177Z,4.30
2023-04-11T07:49:00.196Z,4.30
2023-04-11T07:54:03.508Z,4.50
2023-04-11T07:59:06.265Z,4.70
2023-04-11T08:04:09.188Z,3.90
2023-04-11T08:09:12.163Z,4.50
2023-04-11T08:14:15.383Z,4.10
2023-04-11T08:19:18.442Z,4.10
2023-04-11T08:24:21.140Z,4.30
2023-04-11T08:29:23.847Z,4.00
2023-04-11T08:34:26.568Z,3.90
2023-04-11T08:39:29.352Z,3.40
2023-04-11T08:44:32.116Z,3.40
2023-04-11T08:49:34.811Z,3.20
2023-04-11T08:54:37.544Z,3.20
2023-04-11T08:59:51.212Z,3.30
2023-04-11T09:04:54.785Z,3.40
2023-04-11T09:09:57.552Z,3.30
2023-04-11T09:15:18.667Z,3.40
2023-04-11T09:20:29.537Z,3.30
2023-04-11T09:25:44.051Z,4.00
2023-04-11T09:30:51.432Z,3.70
2023-04-11T09:35:56.193Z,3.30
2023-04-11T09:41:04.173Z,3.80
2023-04-11T09:46:12.116Z,3.40
2023-04-11T09:51:28.214Z,2.80
2023-04-11T09:56:37.696Z,3.30
2023-04-11T10:01:41.199Z,2.90
2023-04-11T10:07:13.008Z,3.30
2023-04-11T10:12:31.796Z,3.90
2023-04-11T10:17:34.937Z,3.40
2023-04-11T10:22:43.951Z,3.50
2023-04-11T10:28:00.971Z,3.50
2023-04-11T10:33:16.153Z,3.90
2023-04-11T10:38:37.649Z,4.10
2023-04-11T10:43:40.502Z,4.70
2023-04-11T10:49:00.843Z,4.10
2023-04-11T10:54:04.029Z,5.20
2023-04-11T10:59:07.631Z,4.10
2023-04-11T11:04:12.076Z,3.70
2023-04-11T11:09:26.468Z,3.60
2023-04-11T11:14:30.532Z,4.10
2023-04-11T11:19:33.993Z,3.70
2023-04-11T11:24:36.705Z,3.90
2023-04-11T11:29:40.119Z,4.30
2023-04-11T11:34:43.061Z,4.70
2023-04-11T11:39:46.021Z,4.00
2023-04-11T11:44:49.058Z,4.10
2023-04-11T11:49:55.675Z,3.90
2023-04-11T11:54:58.857Z,3.90
2023-04-11T12:00:05.944Z,4.00
2023-04-11T12:05:11.748Z,3.40
2023-04-11T12:10:17.113Z,4.30
2023-04-11T12:15:21.934Z,4.00
2023-04-11T12:20:26.855Z,4.40
2023-04-11T12:25:30.352Z,4.50
2023-04-11T12:30:34.124Z,5.70
2023-04-11T12:35:37.235Z,4.30
2023-04-11T12:40:40.154Z,4.40
2023-04-11T12:45:43.044Z,4.40
2023-04-11T12:50:45.776Z,4.40
2023-04-11T12:55:48.482Z,3.70
2023-04-11T13:00:51.197Z,4.00
2023-04-11T13:05:53.959Z,3.70
2023-04-11T13:10:56.661Z,3.60
2023-04-11T13:15:59.403Z,3.40
2023-04-11T13:21:02.129Z,4.20
2023-04-11T13:26:04.938Z,3.50
2023-04-11T13:31:10.499Z,3.20
2023-04-11T13:36:13.812Z,4.20
2023-04-11T13:41:16.731Z,4.40
2023-04-11T13:46:21.985Z,3.90
2023-04-11T13:51:24.713Z,4.40
2023-04-11T13:56:27.634Z,5.40
2023-04-11T14:01:30.410Z,4.00
2023-04-11T14:06:35.355Z,3.80
2023-04-11T14:11:38.064Z,3.70
2023-04-11T14:16:40.906Z,3.50
2023-04-11T14:21:43.743Z,3.80
2023-04-11T14:26:46.559Z,3.30
2023-04-11T14:31:50.014Z,3.90
2023-04-11T14:36:52.916Z,3.30
2023-04-11T14:41:56.495Z,3.50
2023-04-11T14:46:59.319Z,4.30
2023-04-11T14:52:02.314Z,4.10
2023-04-11T14:57:05.927Z,4.20
2023-04-11T15:02:09.054Z,3.50
2023-04-11T15:07:12.899Z,4.10
2023-04-11T15:12:15.596Z,3.50
2023-04-11T15:17:18.755Z,2.50
2023-04-11T15:22:22.092Z,3.60
2023-04-11T15:27:24.773Z,3.20
2023-04-11T15:32:27.582Z,3.30
2023-04-11T15:37:30.429Z,4.00
2023-04-11T15:42:35.584Z,3.30
2023-04-11T15:47:38.492Z,3.80
2023-04-11T15:52:41.358Z,4.70
2023-04-11T15:57:44.292Z,4.20
2023-04-11T16:02:47.402Z,4.50
2023-04-11T16:07:50.310Z,3.80
2023-04-11T16:12:53.279Z,4.60
2023-04-11T16:17:56.607Z,4.70
2023-04-11T16:22:59.480Z,4.40
2023-04-11T16:28:02.331Z,5.30
2023-04-11T16:33:05.208Z,4.70
2023-04-11T16:38:08.125Z,4.30
2023-04-11T16:43:11.223Z,3.60
2023-04-11T16:48:13.923Z,4.70
2023-04-11T16:53:18.672Z,4.10
2023-04-11T16:58:21.396Z,5.50
2023-04-11T17:03:24.739Z,5.60
2023-04-11T17:08:27.991Z,5.70
2023-04-11T17:13:30.774Z,5.80
2023-04-11T17:18:35.448Z,6.60
2023-04-11T17:23:42.956Z,5.80
2023-04-11T17:28:59.285Z,5.70
2023-04-11T17:34:02.188Z,5.40
2023-04-11T17:39:04.900Z,5.70
2023-04-11T17:44:07.680Z,5.40
2023-04-11T17:49:10.582Z,7.40
2023-04-11T17:54:13.379Z,6.80
2023-04-11T17:59:19.467Z,4.70
2023-04-11T18:04:22.361Z,8.20
2023-04-11T18:09:28.196Z,6.90
2023-04-11T18:14:31.148Z,8.50
2023-04-11T18:19:34.243Z,7.10
2023-04-11T18:24:37.055Z,8.10
2023-04-11T18:29:39.791Z,7.60
2023-04-11T18:34:42.509Z,8.60
2023-04-11T18:39:46.010Z,7.40
2023-04-11T18:44:48.882Z,6.90
2023-04-11T18:49:51.856Z,7.40
2023-04-11T18:54:55.524Z,7.70
2023-04-11T19:00:01.746Z,6.40
2023-04-11T19:05:13.482Z,7.80
2023-04-11T19:10:16.809Z,8.30
2023-04-11T19:15:19.713Z,7.50
2023-04-11T19:20:24.872Z,7.30
2023-04-11T19:25:27.608Z,7.60
2023-04-11T19:30:30.547Z,8.10
2023-04-11T19:35:33.303Z,9.50
2023-04-11T19:40:36.387Z,9.40
2023-04-11T19:45:39.160Z,8.80
2023-04-11T19:50:42.093Z,8.90
2023-04-11T19:55:46.021Z,9.20
2023-04-11T20:00:48.961Z,10.70
2023-04-11T20:05:51.803Z,9.60
2023-04-11T20:10:54.501Z,10.00
2023-04-11T20:15:57.185Z,9.70
2023-04-11T20:21:00.307Z,9.50
2023-04-11T20:26:03.046Z,11.00
2023-04-11T20:31:07.474Z,10.80
2023-04-11T20:36:11.272Z,11.00
2023-04-11T20:41:14.215Z,11.40
2023-04-11T20:46:18.045Z,11.50
2023-04-11T20:51:20.815Z,12.30
2023-04-11T20:56:24.154Z,12.70
2023-04-11T21:01:27.396Z,15.30
2023-04-11T21:06:31.906Z,14.20
2023-04-11T21:11:34.663Z,14.90
2023-04-11T21:16:37.338Z,13.00
2023-04-11T21:21:40.765Z,12.30
2023-04-11T21:26:43.520Z,12.50
2023-04-11T21:31:46.297Z,11.20
2023-04-11T21:36:49.944Z,11.20
2023-04-11T21:41:52.646Z,12.80
2023-04-11T21:46:55.447Z,16.70
2023-04-11T21:51:58.369Z,14.90
2023-04-11T21:57:01.767Z,12.00
2023-04-11T22:02:05.421Z,11.10
2023-04-11T22:07:08.508Z,10.20
2023-04-11T22:12:11.299Z,14.50
2023-04-11T22:17:14.609Z,13.40
2023-04-11T22:22:18.131Z,15.30
2023-04-11T22:27:20.944Z,16.00
2023-04-11T22:32:24.273Z,16.20
2023-04-11T22:37:27.327Z,14.80
2023-04-11T22:42:30.181Z,15.30
2023-04-11T22:47:34.597Z,15.30
2023-04-11T22:52:38.025Z,15.10
2023-04-11T22:57:43.650Z,15.10
2023-04-11T23:02:47.190Z,17.00
2023-04-11T23:07:50.312Z,17.20
2023-04-11T23:12:53.209Z,17.80
2023-04-11T23:17:55.906Z,17.90
2023-04-11T23:22:59.227Z,17.60
2023-04-11T23:28:02.324Z,18.90
2023-04-11T23:33:08.824Z,20.00
2023-04-11T23:38:12.021Z,23.90
2023-04-11T23:43:14.727Z,22.80
2023-04-11T23:48:17.380Z,21.30
2023-04-11T23:53:20.069Z,21.10
2023-04-11T23:58:22.832Z,20.50
